Time;durP1;ratioP1;P1;durP2;ratioP2;P2;SDS_P1;SDS_P2;PMS_P1;PMS_P2;Temp;Humidity;BMP_temperature;BMP_pressure;BME280_temperature;BME280_humidity;BME280_pressure;Samples;Min_cycle;Max_cycle;Signal;HPM_P1;HPM_P2
2022/10/03 00:01:08;;;;;;;14.85;10.70;;;;;;;13.71;100.00;97620.63;5036198;28;20040;-56
2022/10/03 00:03:51;;;;;;;16.00;10.52;;;;;;;13.75;100.00;97595.94;5067990;28;20036;-57
2022/10/03 00:06:47;;;;;;;14.55;10.30;;;;;;;13.77;100.00;97591.41;5017794;28;20055;-58
2022/10/03 00:09:42;;;;;;;13.25;10.00;;;;;;;13.81;100.00;97597.22;5040077;28;20063;-55
2022/10/03 00:12:17;;;;;;;15.25;10.65;;;;;;;13.84;100.00;97589.13;5060042;28;20130;-56
2022/10/03 00:14:49;;;;;;;14.45;10.38;;;;;;;13.88;100.00;97582.69;5047027;28;20040;-58
2022/10/03 00:17:41;;;;;;;15.35;10.95;;;;;;;13.87;100.00;97571.41;5068210;28;20424;-54
2022/10/03 00:20:54;;;;;;;14.10;9.82;;;;;;;13.90;100.00;97571.19;5061929;28;20045;-54
2022/10/03 00:23:50;;;;;;;15.98;10.32;;;;;;;13.92;100.00;97564.03;5010596;28;20089;-55
2022/10/03 00:26:29;;;;;;;14.45;10.30;;;;;;;13.96;100.00;97552.41;5067782;28;20131;-58
2022/10/03 00:29:06;;;;;;;14.55;10.43;;;;;;;13.99;100.00;97559.16;5040550;28;20659;-55
2022/10/03 00:31:38;;;;;;;17.17;10.93;;;;;;;14.03;100.00;97557.13;5040315;28;20543;-55
2022/10/03 00:34:23;;;;;;;15.15;10.70;;;;;;;14.07;100.00;97548.91;5058568;28;20141;-56
2022/10/03 00:36:58;;;;;;;16.23;10.55;;;;;;;14.09;100.00;97538.31;5070939;28;20072;-58
2022/10/03 00:39:43;;;;;;;16.77;11.30;;;;;;;14.11;100.00;97544.25;5069319;28;20637;-57
2022/10/03 00:42:38;;;;;;;16.20;11.45;;;;;;;14.14;100.00;97523.91;5071757;28;20585;-56
2022/10/03 00:45:37;;;;;;;16.92;11.65;;;;;;;14.05;100.00;97522.06;5078006;28;20043;-55
2022/10/03 00:48:45;;;;;;;19.33;11.85;;;;;;;14.08;100.00;97524.44;5073681;28;20074;-58
2022/10/03 00:51:32;;;;;;;17.80;11.65;;;;;;;14.07;100.00;97512.34;5045529;28;20556;-56
2022/10/03 00:54:25;;;;;;;20.55;12.38;;;;;;;14.06;100.00;97513.28;5047398;28;20103;-57
2022/10/03 00:57:17;;;;;;;21.15;12.63;;;;;;;14.07;100.00;97520.19;5032254;28;20049;-56
2022/10/03 01:00:16;;;;;;;22.92;12.82;;;;;;;14.11;100.00;97525.97;5042670;28;20057;-56
2022/10/03 01:02:53;;;;;;;17.88;11.73;;;;;;;14.13;100.00;97517.03;5038810;28;20053;-56
2022/10/03 01:05:24;;;;;;;21.17;12.98;;;;;;;14.17;100.00;97515.84;5061139;28;20516;-56
2022/10/03 01:07:53;;;;;;;20.85;12.77;;;;;;;14.20;100.00;97514.75;5043616;28;20037;-56
2022/10/03 01:10:52;;;;;;;19.52;13.32;;;;;;;14.22;100.00;97508.44;5029953;28;20558;-54
2022/10/03 01:13:56;;;;;;;19.67;13.00;;;;;;;14.27;100.00;97500.22;5047269;28;20110;-55
2022/10/03 01:16:57;;;;;;;21.42;14.38;;;;;;;14.30;100.00;97494.72;5039631;28;20056;-57
2022/10/03 01:20:10;;;;;;;21.98;13.40;;;;;;;14.37;100.00;97491.50;5042811;28;20044;-52
2022/10/03 01:22:44;;;;;;;20.20;13.23;;;;;;;14.44;100.00;97480.53;5065169;28;20053;-56
2022/10/03 01:25:45;;;;;;;19.83;14.40;;;;;;;14.47;100.00;97475.03;5068459;28;20043;-56
2022/10/03 01:31:03;;;;;;;21.90;14.50;;;;;;;14.57;100.00;97471.50;5089240;28;20028;-56
2022/10/03 01:33:36;;;;;;;21.98;14.82;;;;;;;14.47;100.00;97441.03;5070912;28;20040;-56
2022/10/03 01:36:50;;;;;;;19.33;14.23;;;;;;;14.70;100.00;97453.81;5089491;28;20181;-55
2022/10/03 01:39:41;;;;;;;18.00;13.18;;;;;;;14.75;100.00;97454.25;5066328;28;20048;-55
2022/10/03 01:42:16;;;;;;;19.63;13.65;;;;;;;14.79;100.00;97444.31;5050959;28;20075;-55
2022/10/03 01:44:42;;;;;;;17.35;13.07;;;;;;;14.87;100.00;97436.63;5066816;28;20048;-54
2022/10/03 01:47:14;;;;;;;19.55;13.50;;;;;;;14.94;100.00;97444.78;5085827;28;20117;-55
2022/10/03 01:50:07;;;;;;;17.55;12.93;;;;;;;14.97;100.00;97434.84;5060482;28;20131;-56
2022/10/03 01:52:59;;;;;;;17.67;12.30;;;;;;;15.01;100.00;97440.66;5065656;28;20059;-57
2022/10/03 01:55:59;;;;;;;20.08;13.30;;;;;;;15.03;100.00;97434.31;5014506;28;20094;-56
2022/10/03 01:58:28;;;;;;;21.88;12.43;;;;;;;15.02;100.00;97432.66;5061778;28;20040;-55
2022/10/03 02:01:20;;;;;;;18.30;11.82;;;;;;;15.07;100.00;97437.50;5066344;28;20066;-57
2022/10/03 02:04:36;;;;;;;14.50;11.18;;;;;;;15.10;100.00;97430.22;5016422;28;20447;-56
2022/10/03 02:07:20;;;;;;;15.73;11.18;;;;;;;15.12;100.00;97430.91;4996162;28;20541;-58
2022/10/03 02:10:03;;;;;;;15.82;11.10;;;;;;;14.98;100.00;97404.28;5004817;28;20083;-57
2022/10/03 02:12:36;;;;;;;15.95;11.13;;;;;;;15.16;100.00;97421.81;5052330;28;20139;-55
2022/10/03 02:15:04;;;;;;;14.23;10.80;;;;;;;15.18;100.00;97414.63;5056282;28;20040;-54
2022/10/03 02:17:44;;;;;;;16.83;11.40;;;;;;;15.22;100.00;97423.06;5083092;28;20048;-57
2022/10/03 02:20:26;;;;;;;14.90;11.15;;;;;;;15.20;100.00;97409.28;5086723;28;20432;-54
2022/10/03 02:22:55;;;;;;;13.30;10.00;;;;;;;15.24;100.00;97414.09;5088135;28;20070;-56
2022/10/03 02:25:24;;;;;;;20.00;11.43;;;;;;;15.24;100.00;97418.50;5087564;28;20039;-55
2022/10/03 02:28:16;;;;;;;14.45;10.05;;;;;;;15.27;100.00;97400.75;5089133;28;20044;-56
2022/10/03 02:31:02;;;;;;;13.82;10.13;;;;;;;15.30;100.00;97394.41;5089805;28;20040;-53
2022/10/03 02:33:38;;;;;;;13.10;9.38;;;;;;;15.34;100.00;97397.56;5089133;28;20040;-53
2022/10/03 02:36:32;;;;;;;12.40;9.48;;;;;;;15.33;100.00;97386.28;5085122;28;20044;-50
2022/10/03 02:39:04;;;;;;;13.20;9.30;;;;;;;15.36;100.00;97385.16;5068300;28;20551;-54
2022/10/03 02:41:40;;;;;;;12.75;9.70;;;;;;;15.37;100.00;97377.19;5098052;27;20431;-52
2022/10/03 02:44:27;;;;;;;12.63;9.02;;;;;;;15.42;100.00;97382.81;5085591;28;20040;-55
2022/10/03 02:47:46;;;;;;;14.70;10.00;;;;;;;15.44;100.00;97383.50;5088471;28;20039;-55
2022/10/03 02:50:20;;;;;;;12.65;9.75;;;;;;;15.46;100.00;97380.75;5083280;28;20067;-56
2022/10/03 02:52:55;;;;;;;11.68;9.35;;;;;;;15.50;100.00;97374.25;5087343;28;20146;-55
2022/10/03 02:55:46;;;;;;;16.95;10.52;;;;;;;15.51;100.00;97379.41;5069394;28;20116;-56
2022/10/03 02:58:16;;;;;;;14.43;10.38;;;;;;;15.51;100.00;97376.78;5004207;28;20049;-55
2022/10/03 03:01:04;;;;;;;13.07;9.82;;;;;;;15.53;100.00;97374.03;5021670;28;20061;-56
2022/10/03 03:04:22;;;;;;;13.00;9.95;;;;;;;15.56;100.00;97368.50;5022795;28;20152;-55
2022/10/03 03:07:09;;;;;;;15.10;10.35;;;;;;;15.54;100.00;97373.91;5005959;28;20518;-54
2022/10/03 03:09:57;;;;;;;12.82;9.90;;;;;;;15.55;100.00;97358.97;5022504;28;20057;-53
2022/10/03 03:12:59;;;;;;;14.13;10.10;;;;;;;15.52;100.00;97375.81;5006157;28;20054;-54
2022/10/03 03:15:55;;;;;;;14.02;9.77;;;;;;;15.51;100.00;97373.31;4988835;28;20053;-54
2022/10/03 03:18:44;;;;;;;13.75;9.80;;;;;;;15.48;100.00;97363.94;4990878;28;20147;-55
2022/10/03 03:21:25;;;;;;;17.35;11.35;;;;;;;15.52;100.00;97367.97;4988590;28;20046;-54
2022/10/03 03:24:25;;;;;;;14.25;10.35;;;;;;;15.55;100.00;97364.22;4989205;28;20049;-55
2022/10/03 03:27:15;;;;;;;13.77;10.35;;;;;;;15.57;100.00;97363.13;5038450;28;20126;-55
2022/10/03 03:29:50;;;;;;;17.50;11.00;;;;;;;15.59;100.00;97363.84;5001831;28;20479;-54
2022/10/03 03:32:48;;;;;;;13.88;9.95;;;;;;;15.50;100.00;97340.22;5025635;28;20103;-55
2022/10/03 03:35:50;;;;;;;12.55;9.63;;;;;;;15.64;100.00;97353.75;5022724;28;20052;-53
2022/10/03 03:38:19;;;;;;;13.90;10.55;;;;;;;15.67;100.00;97360.50;5097347;28;20041;-53
2022/10/03 03:41:12;;;;;;;13.80;9.50;;;;;;;15.68;100.00;97356.91;5063776;28;20040;-55
2022/10/03 03:44:02;;;;;;;13.70;9.80;;;;;;;15.68;100.00;97356.91;5089452;28;20040;-54
2022/10/03 03:46:50;;;;;;;11.80;9.07;;;;;;;15.68;100.00;97349.06;5088425;28;20040;-54
2022/10/03 03:49:45;;;;;;;11.90;9.68;;;;;;;15.70;100.00;97341.88;5095871;28;20047;-55
2022/10/03 03:52:22;;;;;;;13.55;11.13;;;;;;;15.74;100.00;97345.88;5087299;28;20044;-54
2022/10/03 03:55:16;;;;;;;14.02;10.10;;;;;;;15.61;100.00;97311.28;5086997;28;20044;-54
2022/10/03 03:58:00;;;;;;;11.68;9.07;;;;;;;15.76;100.00;97346.53;5082255;28;20472;-55
2022/10/03 04:00:38;;;;;;;14.10;11.18;;;;;;;15.77;100.00;97336.88;5087488;28;20051;-55
2022/10/03 04:03:13;;;;;;;14.50;11.27;;;;;;;15.83;100.00;97324.06;5087000;28;20040;-57
2022/10/03 04:06:01;;;;;;;16.15;11.18;;;;;;;15.82;100.00;97322.41;5086694;28;20047;-54
2022/10/03 04:08:47;;;;;;;15.82;12.05;;;;;;;15.84;100.00;97314.41;5092215;28;20144;-54
2022/10/03 04:11:51;;;;;;;13.90;10.30;;;;;;;15.86;100.00;97315.88;5085924;28;20040;-57
2022/10/03 04:14:42;;;;;;;13.52;11.18;;;;;;;15.87;100.00;97312.31;5046448;28;20049;-53
2022/10/03 04:20:31;;;;;;;14.88;12.73;;;;;;;15.92;100.00;97304.84;5017970;28;20144;-54
2022/10/03 04:23:25;;;;;;;16.55;12.30;;;;;;;15.96;100.00;97287.84;5039847;28;20052;-55
2022/10/03 04:26:14;;;;;;;16.83;12.48;;;;;;;15.99;100.00;97286.75;5051936;28;20140;-54
2022/10/03 04:29:10;;;;;;;18.02;12.90;;;;;;;16.02;100.00;97294.31;5063859;28;20106;-52
2022/10/03 04:32:17;;;;;;;17.33;13.25;;;;;;;16.02;100.00;97284.66;5060340;28;20036;-56
2022/10/03 04:35:07;;;;;;;18.80;13.43;;;;;;;16.04;100.00;97280.13;5052198;28;20442;-55
2022/10/03 04:37:40;;;;;;;18.35;12.85;;;;;;;16.06;100.00;97282.59;5054982;28;20044;-53
2022/10/03 04:40:44;;;;;;;19.23;13.98;;;;;;;16.09;100.00;97295.41;5061052;28;20116;-54
2022/10/03 04:43:23;;;;;;;17.75;14.07;;;;;;;16.14;100.00;97271.38;5041885;28;20048;-57
2022/10/03 04:45:50;;;;;;;17.40;13.25;;;;;;;16.18;100.00;97278.78;5038243;28;20036;-56
2022/10/03 04:48:37;;;;;;;21.55;14.38;;;;;;;16.22;100.00;97267.06;5078670;28;20400;-55
2022/10/03 04:51:23;;;;;;;18.88;14.27;;;;;;;16.16;100.00;97243.22;5083893;28;20040;-52
2022/10/03 04:54:15;;;;;;;17.95;14.55;;;;;;;16.35;100.00;97262.28;5088924;28;20047;-53
2022/10/03 04:56:58;;;;;;;16.58;12.68;;;;;;;16.41;100.00;97253.81;5071997;28;20062;-56
2022/10/03 04:59:35;;;;;;;16.60;12.98;;;;;;;16.47;100.00;97268.97;5089984;28;20040;-56
2022/10/03 05:02:21;;;;;;;19.27;14.10;;;;;;;16.53;100.00;97259.69;5084879;28;20542;-55
2022/10/03 05:04:59;;;;;;;17.30;13.65;;;;;;;16.56;100.00;97267.25;5088600;28;20419;-53
2022/10/03 05:07:32;;;;;;;16.52;12.75;;;;;;;16.56;100.00;97255.91;5087197;28;20043;-55
2022/10/03 05:10:41;;;;;;;17.40;13.02;;;;;;;16.62;100.00;97250.13;5071388;28;20040;-55
2022/10/03 05:13:42;;;;;;;18.08;12.55;;;;;;;16.66;100.00;97257.53;5081592;28;20058;-56
2022/10/03 05:16:22;;;;;;;18.83;12.75;;;;;;;16.72;100.00;97249.06;5090227;28;20415;-56
2022/10/03 05:19:06;;;;;;;19.10;13.90;;;;;;;16.80;100.00;97243.88;5090080;28;20070;-56
2022/10/03 05:21:46;;;;;;;15.10;11.90;;;;;;;16.85;100.00;97232.94;5088163;28;20048;-55
2022/10/03 05:24:55;;;;;;;14.10;11.45;;;;;;;16.91;100.00;97246.28;5088842;28;20032;-56
2022/10/03 05:27:26;;;;;;;17.90;11.30;;;;;;;16.96;100.00;97234.53;5033684;28;20052;-55
2022/10/03 05:30:13;;;;;;;18.40;11.73;;;;;;;16.98;100.00;97236.00;5056065;28;20537;-55
2022/10/03 05:32:47;;;;;;;14.77;12.07;;;;;;;17.05;100.00;97230.97;5067646;28;20198;-52
2022/10/03 05:35:27;;;;;;;15.40;9.80;;;;;;;16.78;100.00;97177.63;5050070;28;20040;-54
2022/10/03 05:38:15;;;;;;;13.90;10.05;;;;;;;17.11;100.00;97225.13;5049890;28;20430;-57
2022/10/03 05:41:07;;;;;;;14.77;10.05;;;;;;;17.10;100.00;97212.97;5067067;28;20438;-56
2022/10/03 05:43:57;;;;;;;17.17;10.02;;;;;;;17.07;100.00;97200.13;5066802;28;20054;-55
2022/10/03 05:46:31;;;;;;;14.70;9.30;;;;;;;17.10;100.00;97195.41;5053549;28;20060;-55
2022/10/03 05:49:22;;;;;;;16.08;9.60;;;;;;;17.12;100.00;97200.47;5068325;28;20123;-55
2022/10/03 05:52:02;;;;;;;13.05;9.13;;;;;;;17.22;100.00;97202.03;5032372;28;20056;-56
2022/10/03 05:54:39;;;;;;;12.38;9.57;;;;;;;17.29;100.00;97182.06;5067527;28;20445;-55
2022/10/03 05:57:24;;;;;;;11.95;7.95;;;;;;;17.30;100.00;97177.63;5068169;28;20037;-56
2022/10/03 06:00:22;;;;;;;14.45;8.35;;;;;;;17.10;100.00;97121.91;5072552;28;20395;-55
2022/10/03 06:03:22;;;;;;;11.63;7.57;;;;;;;17.29;100.00;97149.72;5086057;28;20089;-56
2022/10/03 06:06:29;;;;;;;12.55;7.40;;;;;;;17.31;100.00;97145.97;5085757;28;20150;-53
2022/10/03 06:09:04;;;;;;;9.50;6.80;;;;;;;17.29;100.00;97153.19;5058204;28;20130;-54
2022/10/03 06:11:36;;;;;;;9.73;7.75;;;;;;;17.32;100.00;97155.47;5085191;28;20040;-53
2022/10/03 06:14:11;;;;;;;13.55;7.00;;;;;;;17.25;100.00;97172.03;5088920;28;20602;-53
2022/10/03 06:17:01;;;;;;;12.00;7.25;;;;;;;17.21;100.00;97168.06;5095040;28;20137;-55
2022/10/03 06:19:56;;;;;;;14.35;7.72;;;;;;;17.25;100.00;97151.03;5096669;28;20063;-55
2022/10/03 06:22:22;;;;;;;17.58;7.55;;;;;;;17.30;100.00;97148.75;5094222;28;20220;-58
2022/10/03 06:25:06;;;;;;;11.13;6.95;;;;;;;17.30;100.00;97144.31;5097568;28;20526;-58
2022/10/03 06:27:51;;;;;;;9.73;7.50;;;;;;;17.31;100.00;97147.78;5080482;28;20040;-58
2022/10/03 06:30:22;;;;;;;11.30;6.82;;;;;;;17.34;100.00;97150.06;5089709;28;20627;-57
2022/10/03 06:33:02;;;;;;;11.75;6.60;;;;;;;17.36;100.00;97143.69;5069131;28;20044;-55
2022/10/03 06:35:53;;;;;;;9.13;6.38;;;;;;;17.40;100.00;97140.75;5087702;28;20130;-55
2022/10/03 06:38:35;;;;;;;13.13;5.93;;;;;;;17.34;100.00;97144.81;5078311;28;20039;-58
2022/10/03 06:41:38;;;;;;;12.90;5.45;;;;;;;17.29;100.00;97128.72;5086287;28;20419;-57
2022/10/03 06:44:10;;;;;;;10.77;6.78;;;;;;;17.28;100.00;97133.16;5082671;28;20118;-57
2022/10/03 06:46:52;;;;;;;10.90;5.95;;;;;;;17.25;100.00;97127.41;5104599;28;20048;-56
2022/10/03 06:50:00;;;;;;;11.80;6.15;;;;;;;17.21;100.00;97124.28;5083528;28;20479;-58
2022/10/03 06:52:58;;;;;;;12.90;5.95;;;;;;;17.22;100.00;97130.31;5088035;28;20070;-57
2022/10/03 06:55:46;;;;;;;6.53;5.07;;;;;;;17.16;100.00;97126.53;5090652;28;20085;-60
2022/10/03 06:58:33;;;;;;;13.90;4.90;;;;;;;17.13;100.00;97126.84;5089653;28;20146;-58
2022/10/03 07:01:13;;;;;;;8.00;5.38;;;;;;;17.10;100.00;97145.53;5078045;28;20044;-57
2022/10/03 07:04:11;;;;;;;;;;;;;;;17.09;99.76;97140.44;5087366;28;20038;-58
2022/10/03 07:07:06;;;;;;;10.73;5.30;;;;;;;16.98;99.80;97138.88;5052542;28;20614;-58
2022/10/03 07:10:00;;;;;;;9.63;5.55;;;;;;;16.92;99.63;97142.13;5079196;28;20041;-57
2022/10/03 07:12:52;;;;;;;11.00;5.45;;;;;;;16.89;99.52;97145.91;5081078;28;20079;-56
2022/10/03 07:15:25;;;;;;;10.27;5.20;;;;;;;16.88;99.55;97157.38;5088614;28;20035;-57
2022/10/03 07:17:57;;;;;;;12.05;5.68;;;;;;;16.80;99.06;97153.88;5087300;28;20093;-57
2022/10/03 07:20:31;;;;;;;13.02;5.47;;;;;;;16.74;99.10;97142.19;5076576;28;20075;-56
2022/10/03 07:23:16;;;;;;;9.18;4.80;;;;;;;16.62;99.80;97132.91;5104252;28;20048;-59
2022/10/03 07:26:10;;;;;;;11.25;5.13;;;;;;;16.65;100.00;97145.69;5104360;28;20052;-56
2022/10/03 07:29:34;;;;;;;11.82;5.15;;;;;;;16.57;100.00;97171.84;5085539;28;20089;-57
2022/10/03 07:32:25;;;;;;;13.75;4.80;;;;;;;16.47;100.00;97150.13;5045725;28;20052;-60
2022/10/03 07:35:21;;;;;;;11.45;5.25;;;;;;;16.41;100.00;97140.25;5043507;28;20063;-56
2022/10/03 07:41:27;;;;;;;9.00;5.07;;;;;;;16.45;100.00;97157.31;5069774;28;20052;-57
2022/10/03 07:44:32;;;;;;;8.43;5.63;;;;;;;16.47;100.00;97153.56;5070036;28;20036;-58
2022/10/03 07:47:32;;;;;;;12.68;5.00;;;;;;;16.45;100.00;97141.56;5081646;28;20048;-56
2022/10/03 07:50:19;;;;;;;11.95;5.40;;;;;;;16.47;100.00;97143.09;5044739;28;20436;-57
2022/10/03 07:53:08;;;;;;;12.40;5.10;;;;;;;16.52;100.00;97147.88;5064676;28;20551;-58
2022/10/03 07:55:56;;;;;;;8.65;4.53;;;;;;;16.54;100.00;97144.09;5063984;28;20079;-57
2022/10/03 07:58:32;;;;;;;7.40;4.45;;;;;;;16.58;100.00;97155.13;5048943;28;20601;-61
2022/10/03 08:01:30;;;;;;;11.85;5.00;;;;;;;16.64;100.00;97144.06;5047688;28;20050;-58
2022/10/03 08:04:11;;;;;;;10.90;5.20;;;;;;;16.61;99.92;97135.66;5069156;28;20047;-59
2022/10/03 08:06:59;;;;;;;10.73;4.22;;;;;;;16.54;100.00;97136.25;5067157;28;20493;-58
2022/10/03 08:09:36;;;;;;;12.10;5.40;;;;;;;16.51;100.00;97156.72;5069221;28;20083;-57
2022/10/03 08:12:43;;;;;;;6.93;5.10;;;;;;;16.48;100.00;97128.19;5069458;28;20135;-59
2022/10/03 08:15:33;;;;;;;9.90;5.28;;;;;;;16.40;100.00;97146.44;5008459;28;20133;-56
2022/10/03 08:18:32;;;;;;;6.15;4.38;;;;;;;16.37;100.00;97152.00;5028939;28;20140;-57
2022/10/03 08:21:03;;;;;;;;;;;;;;;16.32;100.00;97144.59;5050810;28;20048;-58
2022/10/03 08:23:59;;;;;;;5.45;4.07;;;;;;;16.22;100.00;97153.50;5067248;28;19928;-59
2022/10/03 08:27:06;;;;;;;9.75;4.75;;;;;;;16.15;100.00;97132.31;5076875;28;20105;-57
2022/10/03 08:29:50;;;;;;;7.22;4.00;;;;;;;16.14;100.00;97142.94;5048560;28;20071;-59
2022/10/03 08:34:50;;;;;;;5.70;4.03;;;;;;;16.13;100.00;97151.75;5104740;27;20432;-61
2022/10/03 08:37:40;;;;;;;6.10;4.20;;;;;;;16.14;100.00;97141.13;5082737;28;20066;-53
2022/10/03 08:40:22;;;;;;;8.15;3.92;;;;;;;16.14;100.00;97142.94;5084010;28;20519;-59
2022/10/03 08:42:48;;;;;;;10.40;4.22;;;;;;;16.14;100.00;97162.09;5082636;28;20044;-57
2022/10/03 08:45:37;;;;;;;7.50;3.72;;;;;;;16.10;100.00;97153.72;5083481;28;20051;-59
2022/10/03 08:48:35;;;;;;;10.38;3.53;;;;;;;15.92;100.00;97123.22;5058919;28;20033;-52
2022/10/03 08:51:41;;;;;;;7.10;3.40;;;;;;;16.04;100.00;97161.34;5076840;28;20449;-54
2022/10/03 08:54:15;;;;;;;8.40;3.88;;;;;;;16.05;100.00;97161.22;5081080;28;20044;-54
2022/10/03 08:56:59;;;;;;;5.40;3.65;;;;;;;16.07;100.00;97161.88;5085684;28;20407;-50
2022/10/03 09:00:07;;;;;;;9.77;3.58;;;;;;;16.05;100.00;97181.34;5084981;28;20043;-51
2022/10/03 09:02:41;;;;;;;6.50;3.30;;;;;;;15.95;100.00;97193.69;5087995;28;20040;-52
2022/10/03 09:05:45;;;;;;;7.93;4.35;;;;;;;15.67;100.00;97177.97;5085423;28;20056;-50
2022/10/03 09:08:20;;;;;;;12.10;5.85;;;;;;;15.38;100.00;97189.50;5082636;28;20043;-54
2022/10/03 09:11:07;;;;;;;7.72;5.20;;;;;;;15.03;100.00;97149.09;5078967;28;20048;-48
2022/10/03 09:13:54;;;;;;;7.97;4.88;;;;;;;15.09;100.00;97203.50;5082021;28;20040;-53
2022/10/03 09:16:58;;;;;;;10.73;5.97;;;;;;;14.97;100.00;97194.16;5080823;28;20048;-54
2022/10/03 09:19:28;;;;;;;14.60;7.30;;;;;;;14.91;100.00;97193.91;5084663;28;20080;-50
2022/10/03 09:21:53;;;;;;;;;;;;;;;14.89;100.00;97196.66;5086586;28;20476;-48
2022/10/03 09:24:22;;;;;;;14.63;5.95;;;;;;;14.79;100.00;97190.63;5084232;28;20049;-55
2022/10/03 09:27:17;;;;;;;13.65;5.20;;;;;;;14.66;100.00;97195.28;5087574;28;20051;-54
2022/10/03 09:30:04;;;;;;;7.65;4.22;;;;;;;14.59;100.00;97204.66;5078980;28;20052;-53
2022/10/03 09:33:11;;;;;;;10.18;6.05;;;;;;;14.53;100.00;97205.22;5080020;28;20056;-48
2022/10/03 09:35:50;;;;;;;12.57;5.82;;;;;;;14.56;100.00;97213.59;5032997;28;20054;-55
2022/10/03 09:38:50;;;;;;;34.22;8.20;;;;;;;14.56;100.00;97223.22;5082482;28;20551;-61
2022/10/03 09:41:43;;;;;;;16.45;8.57;;;;;;;14.56;100.00;97213.59;5083843;28;20040;-61
2022/10/03 09:44:32;;;;;;;14.43;8.65;;;;;;;14.68;100.00;97209.06;5078521;28;20455;-59
2022/10/03 09:47:21;;;;;;;18.50;10.30;;;;;;;14.73;100.00;97206.84;5069749;28;20040;-51
2022/10/03 09:50:20;;;;;;;18.65;9.75;;;;;;;14.81;100.00;97212.25;5069635;28;20036;-55
2022/10/03 09:53:14;;;;;;;16.67;10.05;;;;;;;14.93;100.00;97218.94;5066452;28;20063;-55
2022/10/03 09:56:18;;;;;;;11.35;7.63;;;;;;;14.98;100.00;97213.28;5098015;28;20392;-54
2022/10/03 09:59:05;;;;;;;11.85;8.95;;;;;;;14.88;100.00;97215.09;5064609;28;20052;-54
2022/10/03 10:02:00;;;;;;;12.52;9.00;;;;;;;14.89;100.00;97230.66;5051380;28;20044;-51
2022/10/03 10:05:03;;;;;;;16.27;7.85;;;;;;;14.84;100.00;97232.88;5054314;28;20061;-50
2022/10/03 10:08:06;;;;;;;10.45;5.57;;;;;;;14.79;100.00;97229.84;5071439;28;20520;-49
2022/10/03 10:11:08;;;;;;;4.53;3.03;;;;;;;14.77;100.00;97223.91;5069361;28;20040;-55
2022/10/03 10:14:11;;;;;;;5.82;2.85;;;;;;;14.64;100.00;97239.06;5085909;28;20070;-52
2022/10/03 10:16:49;;;;;;;4.25;2.60;;;;;;;14.57;100.00;97238.78;5051427;28;20094;-55
2022/10/03 10:19:19;;;;;;;;;;;;;;;14.57;100.00;97237.97;5034323;28;20048;-61
2022/10/03 10:22:05;;;;;;;6.95;3.00;;;;;;;14.54;100.00;97238.25;5068646;28;19916;-54
2022/10/03 10:24:46;;;;;;;4.85;2.90;;;;;;;14.52;100.00;97240.16;5057524;28;20055;-54
2022/10/03 10:27:20;;;;;;;5.13;3.33;;;;;;;14.50;100.00;97253.38;5074724;28;20047;-58
2022/10/03 10:30:08;;;;;;;6.78;3.22;;;;;;;14.52;100.00;97250.63;5101476;28;20530;-56
2022/10/03 10:33:11;;;;;;;8.15;3.63;;;;;;;14.48;100.00;97264.94;5083778;28;20535;-60
2022/10/03 10:36:25;;;;;;;5.75;2.10;;;;;;;14.26;100.00;97265.97;5067050;28;20526;-57
2022/10/03 10:39:09;;;;;;;3.28;1.60;;;;;;;14.14;100.00;97280.91;5070480;28;20461;-54
2022/10/03 10:42:16;;;;;;;2.08;0.93;;;;;;;13.86;100.00;97282.50;5069876;28;20148;-58
2022/10/03 10:45:27;;;;;;;3.45;1.95;;;;;;;13.82;100.00;97280.25;5068555;28;20074;-53
2022/10/03 10:48:20;;;;;;;1.80;0.70;;;;;;;13.68;100.00;97276.22;5069532;28;20040;-59
2022/10/03 10:51:20;;;;;;;1.00;0.70;;;;;;;13.58;100.00;97281.41;5066673;28;20056;-54
2022/10/03 10:54:07;;;;;;;1.92;1.10;;;;;;;13.66;100.00;97285.97;5097554;28;20040;-56
2022/10/03 10:56:33;;;;;;;1.80;1.00;;;;;;;13.89;100.00;97289.22;5067767;28;20118;-56
2022/10/03 10:59:24;;;;;;;1.15;1.00;;;;;;;14.02;100.00;97289.84;5069657;28;20043;-59
2022/10/03 11:02:24;;;;;;;3.80;1.45;;;;;;;14.13;100.00;97313.22;5067923;28;20048;-56
2022/10/03 11:05:12;;;;;;;1.40;1.20;;;;;;;14.18;100.00;97305.84;5083188;28;20037;-59
2022/10/03 11:08:06;;;;;;;2.72;1.60;;;;;;;14.21;100.00;97304.75;5084910;28;20596;-60
2022/10/03 11:13:51;;;;;;;2.15;1.73;;;;;;;14.16;100.00;97312.16;5067986;28;20110;-60
2022/10/03 11:16:52;;;;;;;3.42;2.05;;;;;;;13.94;100.00;97324.44;5065752;28;20040;-60
2022/10/03 11:19:49;;;;;;;3.08;1.88;;;;;;;13.71;100.00;97353.47;5033423;28;20033;-58
2022/10/03 11:22:36;;;;;;;4.68;1.85;;;;;;;13.46;100.00;97349.47;5069208;28;20431;-62
2022/10/03 11:25:20;;;;;;;3.95;1.17;;;;;;;13.30;100.00;97355.13;5066617;28;20040;-61
2022/10/03 11:28:39;;;;;;;4.13;2.13;;;;;;;12.88;100.00;97350.75;5066601;28;20086;-59
2022/10/03 11:31:24;;;;;;;3.60;1.60;;;;;;;12.79;100.00;97394.06;5056284;28;20523;-61
2022/10/03 11:34:14;;;;;;;3.40;1.90;;;;;;;12.73;100.00;97384.09;5064960;28;20049;-60
2022/10/03 11:36:44;;;;;;;2.15;1.73;;;;;;;12.71;100.00;97393.84;5057322;28;20036;-60
2022/10/03 11:39:19;;;;;;;2.55;1.48;;;;;;;12.63;100.00;97401.44;5068348;28;20093;-59
2022/10/03 11:41:55;;;;;;;1.77;1.20;;;;;;;12.45;100.00;97379.44;5069031;28;20036;-59
2022/10/03 11:44:25;;;;;;;5.22;1.65;;;;;;;12.59;100.00;97408.69;5066908;28;20067;-60
2022/10/03 11:47:17;;;;;;;6.57;1.80;;;;;;;12.78;100.00;97409.81;5087730;28;20056;-59
2022/10/03 11:49:44;;;;;;;2.45;1.17;;;;;;;12.85;100.00;97439.66;5084945;28;20511;-61
2022/10/03 11:52:45;;;;;;;1.70;1.17;;;;;;;12.91;100.00;97440.03;5067619;28;20036;-61
2022/10/03 11:55:22;;;;;;;2.45;1.27;;;;;;;13.16;100.00;97415.44;5065273;28;20534;-61
2022/10/03 11:58:17;;;;;;;3.45;1.50;;;;;;;13.37;100.00;97400.66;5065773;28;20044;-61
2022/10/03 12:00:46;;;;;;;1.67;1.10;;;;;;;13.30;100.00;97424.75;5082178;28;20090;-60
2022/10/03 12:03:25;;;;;;;1.60;1.10;;;;;;;13.40;100.00;97430.88;5067182;28;20064;-67
2022/10/03 12:09:18;;;;;;;1.77;1.20;;;;;;;13.34;100.00;97457.50;5081348;28;20089;-64
2022/10/03 12:12:30;;;;;;;1.75;1.23;;;;;;;13.08;97.27;97418.63;5067701;28;20097;-64
2022/10/03 12:15:24;;;;;;;1.08;0.90;;;;;;;13.17;93.78;97440.56;5050191;28;20088;-65
2022/10/03 12:18:33;;;;;;;2.30;1.02;;;;;;;13.24;90.75;97440.91;5053216;28;20036;-61
2022/10/03 12:21:06;;;;;;;2.53;1.00;;;;;;;13.30;90.90;97454.28;5059740;28;20056;-61
2022/10/03 12:23:54;;;;;;;3.03;1.60;;;;;;;13.15;87.70;97451.13;5065097;28;20044;-63
2022/10/03 12:26:43;;;;;;;1.98;1.00;;;;;;;13.12;87.12;97477.47;5065049;28;20059;-62
2022/10/03 12:29:13;;;;;;;;;;;;;;;13.03;86.17;97488.59;5077648;28;20106;-63
2022/10/03 12:32:00;;;;;;;0.80;0.80;;;;;;;12.93;85.91;97492.03;5049551;28;19923;-63
2022/10/03 12:34:36;;;;;;;0.82;0.68;;;;;;;12.84;81.45;97506.63;5064625;28;20044;-64
2022/10/03 12:37:15;;;;;;;1.33;0.90;;;;;;;12.83;77.81;97496.31;5065828;28;20139;-62
2022/10/03 12:39:54;;;;;;;3.90;1.13;;;;;;;12.89;77.09;97509.72;5066231;28;20135;-63
2022/10/03 12:42:34;;;;;;;2.47;1.25;;;;;;;12.83;74.88;97523.22;5062909;28;20044;-62
2022/10/03 12:45:25;;;;;;;0.93;0.77;;;;;;;12.73;74.85;97537.94;5066228;28;20040;-64
2022/10/03 12:48:35;;;;;;;0.90;0.77;;;;;;;12.54;74.63;97546.34;5067331;28;20040;-63
2022/10/03 12:51:30;;;;;;;0.68;0.57;;;;;;;12.25;76.52;97543.31;5065628;28;20053;-63
2022/10/03 12:54:15;;;;;;;1.77;0.60;;;;;;;11.92;79.96;97558.03;5067416;28;20036;-63
2022/10/03 12:56:59;;;;;;;4.57;0.55;;;;;;;11.60;81.71;97552.53;5065617;28;20068;-66
2022/10/03 12:59:54;;;;;;;0.85;0.50;;;;;;;11.68;81.07;97579.66;5068079;28;20504;-64
2022/10/03 13:02:31;;;;;;;0.40;0.40;;;;;;;11.12;81.12;97510.06;5065345;28;20121;-65
2022/10/03 13:05:36;;;;;;;0.40;0.35;;;;;;;11.40;82.39;97593.00;5045330;28;20033;-64
2022/10/03 13:08:15;;;;;;;1.63;0.50;;;;;;;11.45;81.36;97602.16;5063906;28;20040;-62
2022/10/03 13:10:46;;;;;;;0.65;0.52;;;;;;;11.59;80.71;97606.34;5064870;28;20040;-63